createdAt,value
2023-05-20T00:00:41.766Z,19.73
2023-05-20T00:01:43.441Z,18.58
2023-05-20T00:02:45.191Z,20.15
2023-05-20T00:03:47.025Z,19.50
2023-05-20T00:04:48.943Z,20.33
2023-05-20T00:05:50.633Z,19.52
2023-05-20T00:06:52.275Z,20.92
2023-05-20T00:07:53.961Z,20.55
2023-05-20T00:08:55.608Z,19.67
2023-05-20T00:09:57.307Z,19.08
2023-05-20T00:10:58.990Z,19.67
2023-05-20T00:12:00.678Z,20.33
2023-05-20T00:13:02.473Z,19.67
2023-05-20T00:14:04.164Z,20.35
2023-05-20T00:15:06.452Z,20.13
2023-05-20T00:16:08.216Z,20.77
2023-05-20T00:17:09.944Z,20.98
2023-05-20T00:18:11.662Z,20.17
2023-05-20T00:19:13.432Z,20.73
2023-05-20T00:20:15.327Z,20.58
2023-05-20T00:21:17.038Z,21.08
2023-05-20T00:22:18.743Z,22.48
2023-05-20T00:23:20.437Z,20.60
2023-05-20T00:24:22.128Z,22.77
2023-05-20T00:25:23.798Z,20.05
2023-05-20T00:26:25.552Z,20.08
2023-05-20T00:27:29.591Z,20.30
2023-05-20T00:28:31.252Z,21.60
2023-05-20T00:29:33.686Z,23.73
2023-05-20T00:30:35.365Z,21.92
2023-05-20T00:31:37.093Z,23.00
2023-05-20T00:32:38.862Z,24.92
2023-05-20T00:33:41.613Z,23.33
2023-05-20T00:34:43.435Z,24.13
2023-05-20T00:35:45.115Z,23.90
2023-05-20T00:36:46.784Z,23.27
2023-05-20T00:37:48.482Z,22.42
2023-05-20T00:38:50.183Z,25.25
2023-05-20T00:39:51.865Z,22.52
2023-05-20T00:40:53.569Z,24.40
2023-05-20T00:41:55.232Z,22.23
2023-05-20T00:42:56.909Z,22.30
2023-05-20T00:43:58.564Z,22.73
2023-05-20T00:45:00.237Z,23.48
2023-05-20T00:46:02.042Z,22.67
2023-05-20T00:47:03.741Z,22.25
2023-05-20T00:48:05.839Z,23.40
2023-05-20T00:49:07.554Z,22.30
2023-05-20T00:50:10.169Z,23.15
2023-05-20T00:51:12.419Z,22.17
2023-05-20T00:52:14.361Z,23.52
2023-05-20T00:53:18.639Z,23.42
2023-05-20T00:54:20.325Z,23.27
2023-05-20T00:55:22.422Z,23.45
2023-05-20T00:57:25.697Z,21.67
2023-05-20T00:58:27.432Z,23.23
2023-05-20T00:59:29.121Z,23.33
2023-05-20T01:00:30.759Z,22.55
2023-05-20T01:01:32.479Z,24.63
2023-05-20T01:02:34.288Z,22.85
2023-05-20T01:03:36.106Z,22.50
2023-05-20T01:04:37.949Z,23.13
2023-05-20T01:05:42.279Z,23.52
2023-05-20T01:06:45.165Z,22.67
2023-05-20T01:07:46.838Z,23.00
2023-05-20T01:08:48.519Z,25.05
2023-05-20T01:09:50.212Z,25.13
2023-05-20T01:10:56.206Z,24.30
2023-05-20T01:12:18.635Z,23.73
2023-05-20T01:13:20.818Z,24.52
2023-05-20T01:15:25.219Z,22.67
2023-05-20T01:16:26.911Z,25.08
2023-05-20T01:17:31.882Z,23.92
2023-05-20T01:18:33.600Z,23.98
2023-05-20T01:19:36.418Z,24.90
2023-05-20T01:20:38.080Z,25.38
2023-05-20T01:21:39.754Z,23.58
2023-05-20T01:22:50.300Z,24.70
2023-05-20T01:23:51.988Z,24.77
2023-05-20T01:24:53.690Z,24.85
2023-05-20T01:25:55.377Z,26.08
2023-05-20T01:26:57.031Z,24.80
2023-05-20T01:27:58.714Z,25.77
2023-05-20T01:29:00.382Z,24.83
2023-05-20T01:30:02.062Z,25.13
2023-05-20T01:31:05.031Z,25.70
2023-05-20T01:32:10.347Z,27.20
2023-05-20T01:33:12.459Z,24.73
2023-05-20T01:35:16.092Z,24.20
2023-05-20T01:36:18.557Z,24.98
2023-05-20T01:37:20.226Z,24.95
2023-05-20T01:38:21.897Z,25.70
2023-05-20T01:39:24.021Z,26.40
2023-05-20T01:40:25.776Z,28.58
2023-05-20T01:41:27.635Z,26.55
2023-05-20T01:42:29.403Z,26.38
2023-05-20T01:43:31.210Z,24.67
2023-05-20T01:44:32.901Z,25.00
2023-05-20T01:45:34.761Z,24.77
2023-05-20T01:46:36.663Z,26.60
2023-05-20T01:47:38.429Z,26.00
2023-05-20T01:48:40.146Z,26.17
2023-05-20T01:49:43.563Z,26.92
2023-05-20T01:50:46.354Z,25.98
2023-05-20T01:51:48.046Z,26.80
2023-05-20T01:52:49.805Z,26.65
2023-05-20T01:53:51.540Z,25.15
2023-05-20T01:54:53.813Z,26.80
2023-05-20T01:55:56.532Z,25.50
2023-05-20T01:56:58.237Z,24.95
2023-05-20T01:57:59.909Z,24.83
2023-05-20T01:59:01.607Z,26.08
2023-05-20T02:00:03.390Z,25.75
2023-05-20T02:01:15.061Z,24.92
2023-05-20T02:02:18.440Z,25.80
2023-05-20T02:03:20.242Z,26.17
2023-05-20T02:04:21.971Z,25.67
2023-05-20T02:05:23.764Z,26.63
2023-05-20T02:06:25.491Z,26.38
2023-05-20T02:07:27.221Z,26.05
2023-05-20T02:08:28.911Z,26.77
2023-05-20T02:09:30.623Z,25.60
2023-05-20T02:10:32.459Z,25.65
2023-05-20T02:11:34.141Z,25.52
2023-05-20T02:12:35.805Z,26.00
2023-05-20T02:13:37.532Z,25.17
2023-05-20T02:14:39.399Z,25.30
2023-05-20T02:15:42.009Z,24.42
2023-05-20T02:16:43.695Z,25.33
2023-05-20T02:17:47.953Z,25.92
2023-05-20T02:18:49.724Z,26.13
2023-05-20T02:19:52.215Z,25.75
2023-05-20T02:20:53.917Z,25.83
2023-05-20T02:21:55.796Z,24.95
2023-05-20T02:22:57.487Z,26.67
2023-05-20T02:23:59.153Z,24.75
2023-05-20T02:25:01.454Z,25.23
2023-05-20T02:26:03.194Z,26.27
2023-05-20T02:27:04.976Z,25.83
2023-05-20T02:28:08.887Z,25.45
2023-05-20T02:29:10.553Z,24.58
2023-05-20T02:30:12.340Z,25.42
2023-05-20T02:31:14.049Z,25.92
2023-05-20T02:32:15.694Z,26.17
2023-05-20T02:33:17.846Z,25.77
2023-05-20T02:35:22.193Z,25.15
2023-05-20T02:36:23.917Z,25.40
2023-05-20T02:37:25.600Z,24.02
2023-05-20T02:38:27.276Z,26.13
2023-05-20T02:39:28.937Z,25.92
2023-05-20T02:40:30.652Z,26.83
2023-05-20T02:41:32.337Z,27.30
2023-05-20T02:42:34.005Z,25.85
2023-05-20T02:43:35.995Z,26.13
2023-05-20T02:44:37.660Z,25.40
2023-05-20T02:45:39.692Z,24.77
2023-05-20T02:46:41.584Z,25.27
2023-05-20T02:47:43.350Z,26.67
2023-05-20T02:48:45.417Z,26.13
2023-05-20T02:49:47.085Z,28.23
2023-05-20T02:50:48.803Z,25.35
2023-05-20T02:51:50.512Z,27.15
2023-05-20T02:52:53.274Z,25.80
2023-05-20T02:53:54.973Z,25.08
2023-05-20T02:54:56.734Z,26.15
2023-05-20T02:57:00.372Z,25.00
2023-05-20T02:58:02.425Z,23.95
2023-05-20T02:59:04.586Z,25.35
2023-05-20T03:00:09.559Z,25.88
2023-05-20T03:01:11.279Z,24.30
2023-05-20T03:02:12.983Z,26.58
2023-05-20T03:03:15.210Z,28.13
2023-05-20T03:04:17.596Z,26.77
2023-05-20T03:05:19.324Z,24.85
2023-05-20T03:06:20.987Z,26.38
2023-05-20T03:07:24.492Z,26.77
2023-05-20T03:08:26.194Z,26.92
2023-05-20T03:09:27.894Z,25.83
2023-05-20T03:10:29.630Z,25.55
2023-05-20T03:11:31.328Z,25.83
2023-05-20T03:12:33.020Z,26.00
2023-05-20T03:13:34.680Z,27.08
2023-05-20T03:14:36.364Z,26.33
2023-05-20T03:15:38.911Z,26.55
2023-05-20T03:16:40.665Z,25.73
2023-05-20T03:17:42.376Z,25.88
2023-05-20T03:18:44.134Z,26.52
2023-05-20T03:19:45.887Z,25.25
2023-05-20T03:20:47.680Z,24.88
2023-05-20T03:21:49.395Z,24.40
2023-05-20T03:22:51.073Z,25.98
2023-05-20T03:23:53.134Z,26.15
2023-05-20T03:24:54.827Z,26.30
2023-05-20T03:25:56.520Z,26.00
2023-05-20T03:26:58.167Z,27.10
2023-05-20T03:27:59.916Z,26.33
2023-05-20T03:29:01.836Z,27.30
2023-05-20T03:30:04.429Z,26.80
2023-05-20T03:31:06.885Z,26.83
2023-05-20T03:32:10.850Z,26.95
2023-05-20T03:33:12.756Z,26.20
2023-05-20T03:34:14.489Z,25.90
2023-05-20T03:35:16.394Z,27.08
2023-05-20T03:36:18.166Z,26.10
2023-05-20T03:37:19.965Z,26.75
2023-05-20T03:38:24.533Z,27.60
2023-05-20T03:39:26.286Z,27.35
2023-05-20T03:40:28.072Z,27.13
2023-05-20T03:41:30.024Z,26.70
2023-05-20T03:43:34.440Z,24.88
2023-05-20T03:44:36.266Z,25.77
2023-05-20T03:45:38.011Z,25.50
2023-05-20T03:46:41.889Z,26.75
2023-05-20T03:47:43.655Z,25.10
2023-05-20T03:48:45.389Z,25.55
2023-05-20T03:49:47.118Z,25.90
2023-05-20T03:50:49.624Z,25.52
2023-05-20T03:51:51.592Z,25.35
2023-05-20T03:52:53.360Z,26.48
2023-05-20T03:53:57.546Z,27.00
2023-05-20T03:54:59.309Z,26.40
2023-05-20T03:56:01.014Z,26.40
2023-05-20T03:57:02.678Z,26.83
2023-05-20T03:58:04.386Z,27.05
2023-05-20T03:59:07.163Z,27.50
2023-05-20T04:00:09.332Z,27.17
2023-05-20T04:01:17.949Z,26.45
2023-05-20T04:02:19.692Z,26.45
2023-05-20T04:03:21.499Z,24.80
2023-05-20T04:04:23.578Z,25.83
2023-05-20T04:05:25.276Z,24.50
2023-05-20T04:06:27.142Z,26.48
2023-05-20T04:07:30.235Z,25.42
2023-05-20T04:08:32.000Z,24.40
2023-05-20T04:09:33.789Z,25.30
2023-05-20T04:10:35.449Z,25.55
2023-05-20T04:11:37.344Z,26.05
2023-05-20T04:12:39.054Z,24.65
2023-05-20T04:13:41.610Z,25.80
2023-05-20T04:14:43.412Z,26.67
2023-05-20T04:15:45.085Z,26.05
2023-05-20T04:16:47.199Z,25.73
2023-05-20T04:18:51.077Z,22.90
2023-05-20T04:19:52.853Z,22.35
2023-05-20T04:20:55.376Z,24.98
2023-05-20T04:21:57.170Z,23.17
2023-05-20T04:22:59.792Z,24.42
2023-05-20T04:24:01.491Z,25.10
2023-05-20T04:25:03.201Z,25.88
2023-05-20T04:26:04.918Z,24.73
2023-05-20T04:27:07.364Z,23.48
2023-05-20T04:28:09.070Z,24.23
2023-05-20T04:29:10.746Z,23.83
2023-05-20T04:30:12.721Z,24.45
2023-05-20T04:31:16.231Z,24.05
2023-05-20T04:33:20.671Z,21.25
2023-05-20T04:35:24.316Z,22.05
2023-05-20T04:36:26.019Z,21.63
2023-05-20T04:37:28.566Z,22.23
2023-05-20T04:38:30.417Z,23.05
2023-05-20T04:39:32.248Z,23.05
2023-05-20T04:40:33.986Z,22.08
2023-05-20T04:41:35.774Z,23.20
2023-05-20T04:42:37.482Z,22.13
2023-05-20T04:43:39.461Z,23.67
2023-05-20T04:44:42.374Z,23.63
2023-05-20T04:45:44.160Z,21.75
2023-05-20T04:46:47.259Z,22.80
2023-05-20T04:47:49.617Z,22.48
2023-05-20T04:48:51.295Z,22.15
2023-05-20T04:49:52.993Z,23.02
2023-05-20T04:50:54.664Z,21.38
2023-05-20T04:51:56.366Z,22.75
2023-05-20T04:52:58.022Z,23.38
2023-05-20T04:53:59.676Z,22.58
2023-05-20T04:55:03.822Z,22.25
2023-05-20T04:56:05.603Z,23.50
2023-05-20T04:57:07.318Z,23.08
2023-05-20T04:58:09.581Z,23.20
2023-05-20T04:59:11.304Z,22.85
2023-05-20T05:00:14.855Z,21.55
2023-05-20T05:01:16.562Z,23.23
2023-05-20T05:02:18.287Z,20.88
2023-05-20T05:03:19.973Z,22.02
2023-05-20T05:04:21.734Z,22.30
2023-05-20T05:05:23.467Z,22.65
2023-05-20T05:06:25.172Z,23.50
2023-05-20T05:07:26.884Z,23.95
2023-05-20T05:08:28.534Z,22.83
2023-05-20T05:09:30.205Z,21.85
2023-05-20T05:11:34.181Z,20.48
2023-05-20T05:12:35.929Z,21.17
2023-05-20T05:13:38.915Z,20.42
2023-05-20T05:14:40.911Z,20.35
2023-05-20T05:15:43.333Z,20.55
2023-05-20T05:16:46.386Z,20.58
2023-05-20T05:17:48.280Z,20.48
2023-05-20T05:18:50.629Z,21.27
2023-05-20T05:19:52.398Z,20.35
2023-05-20T05:21:04.131Z,21.00
2023-05-20T05:22:06.190Z,22.05
2023-05-20T05:23:09.107Z,20.52
2023-05-20T05:24:10.817Z,19.67
2023-05-20T05:25:12.734Z,20.38
2023-05-20T05:26:14.428Z,19.77
2023-05-20T05:27:16.218Z,21.00
2023-05-20T05:28:17.891Z,19.77
2023-05-20T05:29:20.409Z,18.77
2023-05-20T05:30:22.116Z,18.42
2023-05-20T05:32:26.063Z,18.63
2023-05-20T05:33:28.032Z,19.90
2023-05-20T05:34:30.688Z,22.23
2023-05-20T05:35:32.848Z,19.80
2023-05-20T05:36:34.908Z,20.55
2023-05-20T05:37:36.725Z,20.75
2023-05-20T05:38:39.549Z,20.02
2023-05-20T05:39:41.682Z,19.92
2023-05-20T05:40:43.654Z,18.85
2023-05-20T05:41:46.212Z,18.88
2023-05-20T05:42:48.056Z,20.77
2023-05-20T05:43:49.732Z,20.05
2023-05-20T05:44:51.661Z,19.25
2023-05-20T05:45:55.165Z,20.90
2023-05-20T05:46:56.898Z,20.13
2023-05-20T05:47:58.621Z,20.00
2023-05-20T05:50:05.418Z,18.25
2023-05-20T05:51:08.860Z,18.80
2023-05-20T05:52:11.622Z,18.35
2023-05-20T05:53:13.329Z,18.90
2023-05-20T05:54:17.442Z,18.88
2023-05-20T05:55:19.361Z,19.10
2023-05-20T05:56:21.072Z,18.83
2023-05-20T05:57:23.463Z,18.23
2023-05-20T05:58:25.214Z,19.02
2023-05-20T05:59:26.890Z,19.33
2023-05-20T06:00:28.590Z,18.40
2023-05-20T06:01:30.380Z,17.95
2023-05-20T06:02:32.291Z,18.90
2023-05-20T06:03:34.144Z,17.60
2023-05-20T06:04:35.927Z,18.77
2023-05-20T06:05:37.714Z,17.42
2023-05-20T06:06:39.453Z,17.48
2023-05-20T06:07:41.165Z,19.05
2023-05-20T06:08:42.874Z,18.55
2023-05-20T06:09:46.116Z,19.85
2023-05-20T06:10:49.083Z,19.23
2023-05-20T06:11:51.137Z,18.55
2023-05-20T06:12:52.898Z,19.83
2023-05-20T06:13:54.728Z,20.98
2023-05-20T06:14:56.500Z,20.63
2023-05-20T06:15:58.400Z,18.23
2023-05-20T06:17:01.618Z,18.83
2023-05-20T06:18:03.482Z,18.50
2023-05-20T06:19:06.487Z,17.83
2023-05-20T06:20:08.599Z,17.75
2023-05-20T06:21:10.296Z,17.65
2023-05-20T06:22:11.987Z,18.17
2023-05-20T06:23:13.678Z,18.13
2023-05-20T06:24:26.089Z,17.25
2023-05-20T06:25:27.785Z,18.92
2023-05-20T06:27:32.463Z,17.40
2023-05-20T06:28:34.158Z,17.67
2023-05-20T06:29:35.906Z,17.50
2023-05-20T06:30:37.640Z,16.50
2023-05-20T06:31:39.466Z,17.42
2023-05-20T06:32:41.167Z,18.08
2023-05-20T06:33:42.886Z,17.88
2023-05-20T06:34:47.202Z,18.00
2023-05-20T06:35:48.968Z,18.48
2023-05-20T06:36:50.674Z,17.75
2023-05-20T06:37:52.399Z,18.17
2023-05-20T06:38:54.119Z,18.55
2023-05-20T06:39:55.809Z,17.25
2023-05-20T06:40:57.533Z,17.35
2023-05-20T06:41:59.262Z,17.48
2023-05-20T06:43:05.068Z,17.20
2023-05-20T06:44:23.866Z,18.45
2023-05-20T06:45:34.790Z,17.27
2023-05-20T06:46:53.395Z,16.55
2023-05-20T06:47:55.226Z,18.25
2023-05-20T06:48:56.887Z,17.65
2023-05-20T06:49:58.592Z,17.90
2023-05-20T06:51:00.603Z,18.05
2023-05-20T06:52:02.407Z,17.80
2023-05-20T06:53:04.447Z,17.23
2023-05-20T06:54:06.891Z,18.40
2023-05-20T06:55:09.397Z,18.23
2023-05-20T06:56:11.105Z,18.13
2023-05-20T06:57:12.847Z,17.67
2023-05-20T06:58:15.165Z,16.95
2023-05-20T06:59:17.946Z,16.70
2023-05-20T07:00:19.827Z,17.05
2023-05-20T07:01:21.553Z,16.92
2023-05-20T07:02:23.312Z,16.63
2023-05-20T07:03:25.099Z,16.88
2023-05-20T07:04:26.882Z,16.98
2023-05-20T07:05:28.562Z,17.38
2023-05-20T07:06:30.253Z,16.55
2023-05-20T07:07:32.160Z,16.17
2023-05-20T07:08:33.840Z,16.50
2023-05-20T07:09:36.109Z,17.73
2023-05-20T07:10:38.039Z,16.08
2023-05-20T07:11:39.857Z,16.40
2023-05-20T07:12:41.585Z,17.23
2023-05-20T07:13:43.303Z,15.98
2023-05-20T07:14:45.060Z,17.75
2023-05-20T07:15:47.193Z,16.77
2023-05-20T07:16:49.902Z,16.67
2023-05-20T07:17:51.686Z,16.45
2023-05-20T07:18:53.461Z,17.48
2023-05-20T07:20:57.221Z,15.82
2023-05-20T07:22:24.757Z,15.07
2023-05-20T07:23:31.241Z,16.65
2023-05-20T07:24:32.921Z,16.98
2023-05-20T07:25:35.072Z,15.57
2023-05-20T07:26:37.109Z,15.60
2023-05-20T07:28:40.816Z,15.57
2023-05-20T07:29:42.699Z,16.15
2023-05-20T07:30:45.106Z,16.20
2023-05-20T07:31:55.227Z,15.77
2023-05-20T07:32:57.131Z,15.77
2023-05-20T07:33:59.006Z,17.02
2023-05-20T07:35:00.692Z,16.52
2023-05-20T07:36:02.423Z,15.48
2023-05-20T07:37:04.215Z,16.35
2023-05-20T07:38:06.630Z,16.30
2023-05-20T07:39:11.698Z,15.77
2023-05-20T07:40:15.984Z,15.48
2023-05-20T07:41:17.728Z,15.75
2023-05-20T07:42:19.458Z,15.52
2023-05-20T07:43:23.551Z,15.63
2023-05-20T07:44:25.251Z,15.07
2023-05-20T07:45:28.769Z,16.65
2023-05-20T07:46:30.897Z,15.20
2023-05-20T07:47:32.777Z,15.65
2023-05-20T07:49:36.249Z,14.70
2023-05-20T07:51:40.208Z,14.95
2023-05-20T07:52:55.309Z,14.68
2023-05-20T07:53:59.382Z,15.85
2023-05-20T07:55:01.417Z,14.88
2023-05-20T07:56:03.424Z,15.63
2023-05-20T07:57:05.210Z,15.88
2023-05-20T07:58:06.896Z,14.68
2023-05-20T07:59:10.131Z,16.20
2023-05-20T08:01:20.275Z,14.18
2023-05-20T08:03:24.430Z,14.48
2023-05-20T08:04:48.118Z,14.60
2023-05-20T08:05:53.012Z,13.80
2023-05-20T08:06:54.937Z,14.68
2023-05-20T08:08:05.471Z,15.50
2023-05-20T08:09:17.478Z,14.57
2023-05-20T08:10:23.510Z,16.88
2023-05-20T08:11:25.361Z,17.70
2023-05-20T08:12:27.187Z,17.27
2023-05-20T08:13:28.894Z,16.80
2023-05-20T08:14:30.622Z,16.40
2023-05-20T08:15:32.937Z,15.98
2023-05-20T08:16:36.132Z,15.93
2023-05-20T08:17:37.881Z,15.48
2023-05-20T08:18:40.445Z,15.02
2023-05-20T08:19:42.158Z,15.32
2023-05-20T08:20:43.843Z,16.20
2023-05-20T08:21:45.527Z,15.07
2023-05-20T08:22:47.349Z,15.32
2023-05-20T08:23:49.207Z,15.30
2023-05-20T08:24:50.884Z,15.35
2023-05-20T08:25:52.615Z,16.25
2023-05-20T08:26:56.284Z,14.57
2023-05-20T08:28:02.892Z,15.18
2023-05-20T08:29:05.391Z,14.88
2023-05-20T08:30:07.659Z,13.23
2023-05-20T08:31:09.447Z,13.07
2023-05-20T08:32:11.248Z,13.32
2023-05-20T08:33:13.002Z,12.95
2023-05-20T08:34:14.754Z,12.48
2023-05-20T08:35:16.515Z,13.07
2023-05-20T08:36:18.250Z,12.82
2023-05-20T08:37:20.051Z,13.10
2023-05-20T08:38:22.158Z,13.25
2023-05-20T08:39:24.847Z,13.00
2023-05-20T08:40:26.785Z,12.55
2023-05-20T08:41:28.935Z,12.97
2023-05-20T08:42:30.632Z,12.52
2023-05-20T08:43:32.602Z,12.30
2023-05-20T08:44:35.389Z,13.20
2023-05-20T08:45:38.059Z,12.50
2023-05-20T08:46:44.603Z,12.65
2023-05-20T08:47:46.468Z,12.70
2023-05-20T08:48:48.207Z,12.45
2023-05-20T08:49:49.875Z,12.57
2023-05-20T08:50:52.008Z,12.80
2023-05-20T08:51:53.687Z,13.57
2023-05-20T08:52:55.389Z,12.18
2023-05-20T08:53:57.062Z,13.02
2023-05-20T08:54:58.759Z,12.10
2023-05-20T08:56:01.377Z,12.75
2023-05-20T08:57:04.771Z,11.38
2023-05-20T08:58:06.463Z,10.65
2023-05-20T09:20:55.666Z,8.80
2023-05-20T09:21:57.348Z,8.90
2023-05-20T09:23:00.029Z,11.10
2023-05-20T09:24:02.230Z,10.30
2023-05-20T09:25:04.135Z,10.27
2023-05-20T09:26:05.915Z,10.07
2023-05-20T09:27:07.612Z,11.57
2023-05-20T09:28:09.344Z,10.88
2023-05-20T09:29:11.067Z,10.68
2023-05-20T09:30:13.202Z,9.82
2023-05-20T09:32:16.594Z,11.60
2023-05-20T09:33:18.294Z,11.65
2023-05-20T09:34:22.545Z,10.88
2023-05-20T09:35:24.717Z,9.65
2023-05-20T09:36:28.605Z,9.02
2023-05-20T09:37:30.261Z,10.00
2023-05-20T09:38:34.230Z,9.90
2023-05-20T09:39:44.428Z,9.52
2023-05-20T09:40:46.126Z,10.73
2023-05-20T09:42:31.877Z,10.73
2023-05-20T09:43:34.140Z,11.02
2023-05-20T09:44:35.805Z,9.82
2023-05-20T09:45:37.961Z,10.88
2023-05-20T09:46:40.417Z,10.40
2023-05-20T09:47:42.139Z,9.50
2023-05-20T09:48:43.859Z,9.85
2023-05-20T09:49:46.279Z,11.98
2023-05-20T09:50:48.319Z,9.25
2023-05-20T09:52:52.129Z,8.70
2023-05-20T09:53:53.804Z,10.30
2023-05-20T09:54:55.851Z,9.25
2023-05-20T09:55:57.828Z,9.82
2023-05-20T09:57:00.010Z,9.32
2023-05-20T09:58:02.369Z,9.90
2023-05-20T09:59:04.049Z,9.13
2023-05-20T10:00:06.471Z,9.30
2023-05-20T10:01:14.219Z,10.07
2023-05-20T10:02:15.960Z,8.70
2023-05-20T10:03:18.610Z,8.73
2023-05-20T10:04:20.363Z,9.80
2023-05-20T10:05:24.626Z,9.68
2023-05-20T10:06:52.498Z,9.98
2023-05-20T10:08:31.802Z,9.00
2023-05-20T10:09:56.754Z,9.10
2023-05-20T10:11:06.889Z,8.63
2023-05-20T10:12:31.885Z,9.60
2023-05-20T10:13:42.150Z,10.07
2023-05-20T10:14:49.529Z,10.32
2023-05-20T10:16:00.030Z,10.45
2023-05-20T10:17:14.023Z,10.40
2023-05-20T10:18:52.857Z,10.30
2023-05-20T10:20:00.885Z,9.18
2023-05-20T10:21:02.544Z,8.57
2023-05-20T10:22:05.347Z,8.63
2023-05-20T10:23:07.021Z,8.30
2023-05-20T10:24:09.474Z,8.25
2023-05-20T10:25:13.116Z,8.48
2023-05-20T10:26:14.762Z,8.43
2023-05-20T10:27:18.076Z,7.80
2023-05-20T10:28:34.032Z,9.00
2023-05-20T10:29:46.412Z,8.00
2023-05-20T10:30:50.683Z,8.20
2023-05-20T10:31:52.820Z,7.55
2023-05-20T10:32:57.379Z,7.95
2023-05-20T10:33:59.206Z,7.65
2023-05-20T10:35:05.531Z,8.50
2023-05-20T10:36:07.683Z,7.78
2023-05-20T10:37:09.334Z,8.45
2023-05-20T10:38:11.964Z,8.07
2023-05-20T10:39:16.258Z,8.43
2023-05-20T10:40:19.998Z,8.32
2023-05-20T10:41:23.922Z,8.35
2023-05-20T10:42:28.759Z,8.25
2023-05-20T10:43:30.497Z,8.02
2023-05-20T10:44:47.525Z,7.72
2023-05-20T10:45:49.756Z,8.98
2023-05-20T10:48:08.710Z,7.82
2023-05-20T10:49:20.988Z,8.02
2023-05-20T10:50:36.951Z,7.50
2023-05-20T10:51:38.633Z,7.15
2023-05-20T10:52:40.324Z,7.63
2023-05-20T10:53:45.424Z,7.65
2023-05-20T10:54:59.404Z,7.05
2023-05-20T10:56:01.093Z,7.38
2023-05-20T10:57:06.832Z,7.75
2023-05-20T10:58:09.676Z,7.50
2023-05-20T10:59:11.344Z,7.20
2023-05-20T11:00:13.472Z,6.72
2023-05-20T11:02:17.209Z,6.53
2023-05-20T11:03:18.976Z,6.75
2023-05-20T11:04:20.711Z,6.15
2023-05-20T11:05:22.404Z,6.07
2023-05-20T11:06:27.929Z,6.47
2023-05-20T11:07:30.153Z,6.65
2023-05-20T11:08:31.831Z,7.05
2023-05-20T11:09:33.542Z,6.57
2023-05-20T11:10:35.802Z,10.68
2023-05-20T11:11:37.677Z,8.02
2023-05-20T11:12:39.418Z,7.15
2023-05-20T11:13:41.190Z,7.20
2023-05-20T11:14:42.844Z,6.95
2023-05-20T11:15:44.511Z,6.43
2023-05-20T11:16:46.299Z,6.95
2023-05-20T11:17:58.421Z,6.43
2023-05-20T11:19:00.266Z,6.65
2023-05-20T11:20:01.963Z,6.45
2023-05-20T11:21:03.697Z,5.72
2023-05-20T11:22:07.807Z,6.38
2023-05-20T11:23:12.102Z,6.47
2023-05-20T11:24:13.959Z,6.22
2023-05-20T11:25:16.636Z,6.45
2023-05-20T11:26:18.295Z,6.30
2023-05-20T11:27:19.981Z,6.30
2023-05-20T11:28:21.669Z,6.53
2023-05-20T11:29:23.501Z,7.30
2023-05-20T11:30:25.161Z,6.60
2023-05-20T11:31:26.875Z,6.93
2023-05-20T11:32:28.690Z,6.88
2023-05-20T11:33:30.439Z,6.68
2023-05-20T11:34:38.169Z,6.30
2023-05-20T11:35:45.422Z,7.50
2023-05-20T11:36:47.086Z,6.40
2023-05-20T11:37:57.468Z,5.20
2023-05-20T11:38:59.553Z,5.30
2023-05-20T11:41:08.844Z,5.25
2023-05-20T11:42:10.498Z,5.47
2023-05-20T11:43:12.974Z,5.00
2023-05-20T11:44:14.631Z,5.63
2023-05-20T11:45:16.287Z,5.72
2023-05-20T11:46:18.050Z,5.40
2023-05-20T11:47:24.752Z,5.80
2023-05-20T11:48:26.408Z,5.93
2023-05-20T11:49:28.073Z,5.60
2023-05-20T11:50:33.870Z,5.97
2023-05-20T11:51:35.799Z,5.55
2023-05-20T11:52:40.232Z,5.35
2023-05-20T11:53:41.870Z,5.63
2023-05-20T11:54:43.548Z,5.70
2023-05-20T11:55:49.746Z,5.32
2023-05-20T11:56:51.492Z,5.15
2023-05-20T11:57:53.166Z,4.68
2023-05-20T11:58:54.833Z,5.03
2023-05-20T11:59:56.510Z,5.18
2023-05-20T12:01:09.123Z,5.20
2023-05-20T12:02:16.128Z,5.10
2023-05-20T12:03:18.125Z,5.38
2023-05-20T12:04:20.069Z,5.40
2023-05-20T12:05:21.776Z,5.90
2023-05-20T12:06:23.423Z,5.32
2023-05-20T12:07:25.118Z,6.57
2023-05-20T12:08:26.798Z,6.00
2023-05-20T12:09:28.441Z,5.72
2023-05-20T12:10:30.291Z,5.68
2023-05-20T12:11:31.994Z,5.70
2023-05-20T12:12:34.812Z,5.57
2023-05-20T12:13:37.434Z,5.60
2023-05-20T12:14:39.093Z,5.60
2023-05-20T12:15:40.879Z,5.13
2023-05-20T12:16:42.641Z,5.20
2023-05-20T12:17:48.620Z,5.40
2023-05-20T12:18:50.368Z,5.07
2023-05-20T12:19:52.047Z,5.65
2023-05-20T12:20:53.731Z,5.88
2023-05-20T12:21:55.412Z,5.22
2023-05-20T12:22:57.456Z,5.40
2023-05-20T12:25:00.709Z,5.57
2023-05-20T12:26:02.394Z,5.70
2023-05-20T12:27:04.145Z,4.93
2023-05-20T12:28:05.800Z,5.20
2023-05-20T12:29:07.444Z,5.45
2023-05-20T12:30:09.724Z,5.43
2023-05-20T12:31:11.413Z,4.85
2023-05-20T12:32:13.185Z,5.55
2023-05-20T12:33:14.855Z,5.40
2023-05-20T12:34:16.518Z,5.82
2023-05-20T12:35:25.049Z,5.63
2023-05-20T12:36:26.740Z,5.13
2023-05-20T12:37:28.401Z,5.30
2023-05-20T12:38:30.070Z,4.80
2023-05-20T12:39:31.763Z,4.72
2023-05-20T12:40:33.886Z,5.40
2023-05-20T12:41:35.746Z,5.55
2023-05-20T12:42:37.884Z,5.32
2023-05-20T12:43:39.552Z,5.43
2023-05-20T12:44:41.228Z,5.18
2023-05-20T12:45:42.884Z,5.38
2023-05-20T12:46:44.637Z,5.50
2023-05-20T12:47:46.384Z,5.72
2023-05-20T12:48:48.257Z,5.32
2023-05-20T12:49:52.749Z,5.80
2023-05-20T12:50:54.463Z,6.80
2023-05-20T12:51:56.152Z,5.30
2023-05-20T12:52:57.805Z,5.85
2023-05-20T12:53:59.460Z,5.47
2023-05-20T12:55:01.122Z,5.35
2023-05-20T12:56:02.987Z,5.15
2023-05-20T12:57:04.798Z,5.15
2023-05-20T12:58:06.575Z,6.55
2023-05-20T12:59:08.222Z,5.75
2023-05-20T13:00:10.553Z,5.63
2023-05-20T13:01:12.255Z,6.55
2023-05-20T13:02:14.016Z,6.20
2023-05-20T13:03:15.786Z,5.40
2023-05-20T13:04:17.561Z,5.93
2023-05-20T13:05:19.270Z,5.28
2023-05-20T13:06:20.921Z,4.75
2023-05-20T13:07:25.323Z,5.05
2023-05-20T13:08:28.540Z,4.95
2023-05-20T13:09:30.483Z,4.88
2023-05-20T13:10:33.192Z,4.82
2023-05-20T13:11:35.108Z,5.00
2023-05-20T13:12:36.875Z,4.65
2023-05-20T13:13:38.529Z,5.07
2023-05-20T13:14:40.416Z,5.20
2023-05-20T13:15:42.097Z,4.38
2023-05-20T13:16:43.901Z,4.57
2023-05-20T13:17:45.681Z,5.35
2023-05-20T13:18:47.583Z,5.13
2023-05-20T13:19:49.395Z,4.65
2023-05-20T13:20:51.060Z,4.40
2023-05-20T13:21:52.734Z,5.63
2023-05-20T13:22:54.450Z,4.80
2023-05-20T13:23:56.081Z,6.18
2023-05-20T13:24:57.759Z,5.03
2023-05-20T13:25:59.392Z,5.05
2023-05-20T13:27:01.159Z,5.05
2023-05-20T13:28:03.677Z,4.57
2023-05-20T13:29:05.343Z,4.95
2023-05-20T13:30:07.927Z,5.50
2023-05-20T13:31:09.748Z,4.53
2023-05-20T13:32:11.480Z,4.38
2023-05-20T13:33:13.144Z,4.38
2023-05-20T13:34:14.915Z,4.63
2023-05-20T13:35:16.616Z,4.68
2023-05-20T13:36:18.274Z,5.30
2023-05-20T13:37:19.953Z,4.50
2023-05-20T13:38:21.627Z,4.28
2023-05-20T13:39:23.284Z,4.45
2023-05-20T13:40:25.098Z,4.75
2023-05-20T13:41:26.834Z,4.10
2023-05-20T13:42:28.526Z,4.82
2023-05-20T13:43:31.436Z,4.53
2023-05-20T13:44:33.104Z,4.60
2023-05-20T13:45:34.757Z,4.10
2023-05-20T13:46:36.494Z,4.35
2023-05-20T13:47:38.189Z,5.38
2023-05-20T13:48:39.989Z,4.95
2023-05-20T13:49:41.692Z,4.47
2023-05-20T13:50:43.371Z,5.03
2023-05-20T13:51:45.052Z,4.63
2023-05-20T13:52:46.728Z,4.05
2023-05-20T13:53:48.393Z,4.65
2023-05-20T13:54:50.063Z,4.57
2023-05-20T13:55:51.718Z,4.57
2023-05-20T13:56:53.394Z,4.35
2023-05-20T13:57:55.041Z,4.03
2023-05-20T13:58:56.686Z,5.18
2023-05-20T13:59:58.364Z,4.78
2023-05-20T14:01:00.007Z,4.82
2023-05-20T14:02:01.858Z,5.20
2023-05-20T14:03:03.889Z,4.70
2023-05-20T14:05:07.601Z,5.13
2023-05-20T14:06:09.272Z,4.72
2023-05-20T14:07:11.018Z,5.25
2023-05-20T14:08:12.740Z,5.82
2023-05-20T14:09:14.424Z,4.82
2023-05-20T14:10:16.117Z,5.35
2023-05-20T14:11:17.806Z,5.75
2023-05-20T14:12:19.530Z,5.40
2023-05-20T14:13:22.326Z,5.47
2023-05-20T14:14:23.984Z,5.60
2023-05-20T14:15:25.696Z,5.43
2023-05-20T14:16:27.402Z,5.15
2023-05-20T14:17:29.146Z,5.10
2023-05-20T14:18:30.809Z,5.18
2023-05-20T14:19:32.594Z,5.55
2023-05-20T14:20:34.548Z,4.90
2023-05-20T14:22:37.968Z,5.00
2023-05-20T14:23:40.456Z,6.10
2023-05-20T14:24:42.162Z,4.70
2023-05-20T14:25:43.872Z,5.05
2023-05-20T14:26:47.556Z,4.82
2023-05-20T14:27:50.033Z,5.90
2023-05-20T14:28:51.708Z,5.63